createdAt,value
2022-12-24T00:00:10.185Z,70.01
2022-12-24T00:01:20.190Z,69.76
2022-12-24T00:02:30.007Z,68.93
2022-12-24T00:03:39.353Z,68.45
2022-12-24T00:04:48.307Z,67.87
2022-12-24T00:05:57.087Z,67.75
2022-12-24T00:07:06.789Z,67.34
2022-12-24T00:08:15.457Z,67.64
2022-12-24T00:09:24.225Z,68.10
2022-12-24T00:10:33.898Z,68.67
2022-12-24T00:11:42.612Z,68.87
2022-12-24T00:12:52.164Z,67.90
2022-12-24T00:14:01.263Z,67.82
2022-12-24T00:15:10.759Z,68.08
2022-12-24T00:16:21.104Z,68.49
2022-12-24T00:17:30.468Z,68.79
2022-12-24T00:18:45.451Z,68.86
2022-12-24T00:19:50.133Z,68.87
2022-12-24T00:21:00.123Z,69.14
2022-12-24T00:22:09.238Z,69.15
2022-12-24T00:23:18.840Z,69.07
2022-12-24T00:24:27.446Z,69.34
2022-12-24T00:25:37.966Z,69.33
2022-12-24T00:26:46.994Z,69.83
2022-12-24T00:27:57.663Z,69.72
2022-12-24T00:29:08.257Z,69.82
2022-12-24T00:30:17.082Z,69.45
2022-12-24T00:31:26.940Z,69.59
2022-12-24T00:32:39.351Z,70.04
2022-12-24T00:33:50.267Z,70.22
2022-12-24T00:34:59.266Z,69.96
2022-12-24T00:36:09.308Z,69.66
2022-12-24T00:37:17.858Z,69.72
2022-12-24T00:38:26.387Z,69.81
2022-12-24T00:39:35.443Z,69.75
2022-12-24T00:40:44.547Z,68.92
2022-12-24T00:41:53.648Z,68.96
2022-12-24T00:43:02.445Z,69.26
2022-12-24T00:44:11.588Z,69.44
2022-12-24T00:45:21.259Z,69.58
2022-12-24T00:46:32.175Z,69.77
2022-12-24T00:47:41.856Z,69.36
2022-12-24T00:48:51.709Z,69.39
2022-12-24T00:51:16.144Z,69.52
2022-12-24T00:52:25.995Z,69.56
2022-12-24T00:53:35.103Z,69.86
2022-12-24T00:54:44.739Z,70.00
2022-12-24T00:55:53.642Z,70.01
2022-12-24T00:57:03.266Z,70.23
2022-12-24T00:58:12.720Z,70.84
2022-12-24T00:59:22.565Z,70.73
2022-12-24T01:00:31.292Z,70.40
2022-12-24T01:01:40.837Z,70.03
2022-12-24T01:02:51.318Z,69.68
2022-12-24T01:04:18.972Z,69.44
2022-12-24T01:05:29.051Z,68.96
2022-12-24T01:06:37.576Z,68.85
2022-12-24T01:07:47.376Z,68.70
2022-12-24T01:08:55.969Z,68.49
2022-12-24T01:10:07.334Z,68.63
2022-12-24T01:11:16.252Z,68.61
2022-12-24T01:12:26.249Z,68.95
2022-12-24T01:13:36.568Z,68.66
2022-12-24T01:14:46.136Z,68.67
2022-12-24T01:15:56.215Z,69.05
2022-12-24T01:17:05.915Z,68.84
2022-12-24T01:18:15.491Z,69.06
2022-12-24T01:19:24.101Z,68.99
2022-12-24T01:20:33.211Z,69.13
2022-12-24T01:21:42.464Z,69.20
2022-12-24T01:22:53.082Z,69.58
2022-12-24T01:24:02.845Z,69.53
2022-12-24T01:25:12.040Z,69.80
2022-12-24T01:26:21.168Z,70.07
2022-12-24T01:27:30.594Z,70.46
2022-12-24T01:28:40.657Z,70.69
2022-12-24T01:29:53.226Z,70.95
2022-12-24T01:31:02.165Z,70.91
2022-12-24T01:32:12.018Z,70.87
2022-12-24T01:33:22.162Z,70.70
2022-12-24T01:34:31.224Z,70.44
2022-12-24T01:36:57.743Z,69.84
2022-12-24T01:38:07.855Z,69.12
2022-12-24T01:39:16.907Z,68.75
2022-12-24T01:40:45.613Z,69.34
2022-12-24T01:42:12.547Z,69.90
2022-12-24T01:43:25.747Z,69.67
2022-12-24T01:44:37.901Z,70.09
2022-12-24T01:45:53.239Z,70.21
2022-12-24T01:47:23.581Z,69.95
2022-12-24T01:48:42.736Z,70.41
2022-12-24T01:49:56.066Z,70.01
2022-12-24T01:51:29.930Z,70.11
2022-12-24T06:24:00.122Z,80.03
2022-12-24T06:26:24.728Z,79.65
2022-12-24T06:27:33.773Z,79.31
2022-12-24T06:28:44.937Z,78.76
2022-12-24T06:29:53.581Z,77.83
2022-12-24T06:31:04.689Z,77.54
2022-12-24T06:32:13.490Z,77.28
2022-12-24T06:33:22.608Z,76.40
2022-12-24T06:34:31.260Z,75.92
2022-12-24T06:36:55.534Z,74.82
2022-12-24T06:38:04.543Z,74.17
2022-12-24T06:39:14.348Z,73.70
2022-12-24T06:40:23.503Z,72.25
2022-12-24T06:41:32.628Z,71.29
2022-12-24T06:42:41.178Z,71.05
2022-12-24T06:43:53.016Z,69.27
2022-12-24T06:45:08.114Z,68.51
2022-12-24T06:46:15.188Z,68.87
2022-12-24T06:47:24.356Z,68.62
2022-12-24T06:48:33.026Z,68.11
2022-12-24T06:49:42.804Z,68.78
2022-12-24T06:50:52.640Z,69.21
2022-12-24T06:52:02.174Z,69.34
2022-12-24T06:53:10.847Z,69.87
2022-12-24T06:54:19.379Z,70.72
2022-12-24T06:55:28.425Z,71.18
2022-12-24T06:56:38.136Z,70.52
2022-12-24T06:57:48.395Z,70.70
2022-12-24T06:59:03.163Z,70.75
2022-12-24T07:00:10.620Z,69.96
2022-12-24T07:01:20.745Z,69.55
2022-12-24T07:02:29.847Z,69.69
2022-12-24T07:03:38.993Z,69.96
2022-12-24T07:04:48.754Z,69.41
2022-12-24T07:05:59.630Z,69.51
2022-12-24T07:07:08.532Z,70.25
2022-12-24T07:09:33.255Z,71.00
2022-12-24T07:10:42.095Z,71.48
2022-12-24T07:11:51.569Z,72.08
2022-12-24T07:13:01.113Z,70.91
2022-12-24T07:15:25.317Z,70.14
2022-12-24T07:16:35.630Z,70.46
2022-12-24T07:17:44.499Z,70.00
2022-12-24T07:18:53.899Z,70.09
2022-12-24T07:20:05.154Z,68.84
2022-12-24T07:21:14.413Z,68.70
2022-12-24T07:22:23.333Z,68.77
2022-12-24T07:23:32.295Z,68.89
2022-12-24T07:27:17.555Z,69.21
2022-12-24T07:28:28.253Z,69.89
2022-12-24T07:29:37.314Z,70.02
2022-12-24T07:30:48.043Z,70.30
2022-12-24T07:31:58.773Z,70.80
2022-12-24T07:33:08.993Z,71.12
2022-12-24T07:34:19.625Z,71.56
2022-12-24T07:35:29.048Z,71.19
2022-12-24T07:36:38.150Z,70.68
2022-12-24T07:37:46.871Z,70.71
2022-12-24T07:38:56.861Z,69.76
2022-12-24T07:40:10.036Z,68.92
2022-12-24T07:41:19.171Z,68.26
2022-12-24T07:42:28.288Z,68.43
2022-12-24T07:43:37.311Z,69.23
2022-12-24T07:44:47.061Z,68.94
2022-12-24T07:45:57.497Z,68.81
2022-12-24T07:47:06.734Z,69.02
2022-12-24T07:48:16.347Z,68.53
2022-12-24T07:49:29.242Z,68.23
2022-12-24T07:50:38.104Z,68.59
2022-12-24T07:51:47.546Z,69.20
2022-12-24T07:52:56.985Z,69.60
2022-12-24T07:54:06.327Z,69.92
2022-12-24T07:55:16.287Z,69.90
2022-12-24T07:57:42.174Z,69.96
2022-12-24T07:58:51.561Z,69.44
2022-12-24T08:00:01.703Z,69.60
2022-12-24T08:01:13.412Z,69.48
2022-12-24T08:03:37.692Z,70.12
2022-12-24T08:04:47.368Z,70.20
2022-12-24T08:05:58.150Z,69.88
2022-12-24T08:07:07.436Z,69.73
2022-12-24T08:08:17.411Z,69.37
2022-12-24T08:11:03.338Z,68.39
2022-12-24T08:12:12.063Z,68.29
2022-12-24T08:13:20.841Z,68.53
2022-12-24T08:14:32.388Z,68.65
2022-12-24T08:16:50.462Z,69.04
2022-12-24T08:19:16.100Z,68.69
2022-12-24T08:20:25.658Z,68.67
2022-12-24T08:21:34.310Z,68.70
2022-12-24T08:23:58.591Z,68.57
2022-12-24T08:25:09.118Z,68.33
2022-12-24T08:26:19.435Z,68.58
2022-12-24T08:27:28.122Z,68.83
2022-12-24T08:29:46.273Z,69.22
2022-12-24T08:30:56.575Z,69.23
2022-12-24T08:32:06.613Z,69.31
2022-12-24T08:33:22.806Z,69.36
2022-12-24T08:34:31.463Z,69.78
2022-12-24T08:35:40.606Z,70.02
2022-12-24T08:36:53.063Z,69.98
2022-12-24T08:38:02.160Z,69.97
2022-12-24T08:39:10.781Z,69.62
2022-12-24T08:40:19.765Z,69.72
2022-12-24T08:41:29.213Z,69.72
2022-12-24T08:42:37.824Z,69.61
2022-12-24T08:45:02.129Z,69.68
2022-12-24T08:46:11.266Z,69.46
2022-12-24T08:47:20.380Z,69.61
2022-12-24T08:48:29.119Z,69.69
2022-12-24T08:50:51.926Z,69.66
2022-12-24T08:52:00.914Z,70.01
2022-12-24T08:54:26.862Z,70.01
2022-12-24T08:55:36.322Z,70.03
2022-12-24T08:56:45.379Z,69.90
2022-12-24T08:57:53.905Z,69.72
2022-12-24T09:00:13.093Z,69.41
2022-12-24T09:02:37.428Z,69.52
2022-12-24T09:03:47.761Z,69.54
2022-12-24T09:04:56.969Z,69.32
2022-12-24T09:06:08.228Z,69.44
2022-12-24T09:09:41.304Z,69.89
2022-12-24T09:10:50.854Z,70.05
2022-12-24T09:12:00.621Z,69.99
2022-12-24T09:13:09.146Z,70.04
2022-12-24T09:15:29.975Z,69.95
2022-12-24T09:16:39.567Z,69.74
2022-12-24T09:19:03.595Z,69.40
2022-12-24T09:20:14.270Z,69.38
2022-12-24T09:22:40.450Z,69.41
2022-12-24T09:23:49.263Z,69.36
2022-12-24T09:24:59.043Z,69.62
2022-12-24T09:26:12.365Z,69.44
2022-12-24T09:28:38.710Z,69.90
2022-12-24T09:29:49.884Z,69.53
2022-12-24T09:32:16.310Z,69.61
2022-12-24T09:33:26.704Z,69.61
2022-12-24T09:34:35.259Z,69.82
2022-12-24T09:35:44.763Z,69.91
2022-12-24T09:38:12.522Z,70.18
2022-12-24T09:39:21.171Z,70.45
2022-12-24T09:40:39.254Z,70.14
2022-12-24T09:42:00.846Z,70.15
2022-12-24T09:43:20.275Z,70.09
2022-12-24T09:44:47.658Z,69.96
2022-12-24T09:46:20.109Z,69.11
2022-12-24T09:47:32.781Z,68.70
2022-12-24T09:50:04.364Z,67.93
2022-12-24T09:51:28.959Z,68.11
2022-12-24T09:52:41.213Z,67.79
2022-12-24T09:53:59.893Z,68.03
2022-12-24T09:57:41.422Z,68.15
2022-12-24T11:06:24.397Z,75.54
2022-12-24T11:07:34.235Z,75.34
2022-12-24T11:10:08.556Z,74.20
2022-12-24T11:12:40.772Z,73.16
2022-12-24T11:13:54.405Z,72.79
2022-12-24T11:15:20.133Z,72.30
2022-12-24T11:18:02.766Z,70.18
2022-12-24T11:20:35.615Z,69.22
2022-12-24T11:21:45.921Z,68.93
2022-12-24T11:22:56.458Z,68.21
2022-12-24T11:25:32.645Z,66.09
2022-12-24T11:26:45.191Z,66.76
2022-12-24T11:27:55.262Z,66.80
2022-12-24T11:30:26.366Z,67.21
2022-12-24T11:31:39.031Z,67.41
2022-12-24T11:34:31.057Z,67.45
2022-12-24T11:35:44.333Z,67.42
2022-12-24T11:38:13.918Z,67.04
2022-12-24T11:40:44.276Z,67.47
2022-12-24T11:41:54.645Z,67.73
2022-12-24T11:43:14.352Z,67.16
2022-12-24T11:45:37.720Z,67.87
2022-12-24T11:48:07.931Z,69.28
2022-12-24T11:49:24.899Z,69.17
2022-12-24T11:54:02.187Z,69.03
2022-12-24T11:56:40.534Z,69.40
2022-12-24T11:59:25.848Z,68.69
2022-12-24T12:02:11.767Z,69.06
2022-12-24T12:04:52.137Z,68.83
2022-12-24T12:07:26.704Z,68.27
2022-12-24T12:08:38.240Z,68.15
2022-12-24T12:11:47.414Z,68.75
2022-12-24T12:13:08.615Z,68.62
2022-12-24T12:17:35.729Z,68.42
2022-12-24T12:19:00.036Z,68.59
2022-12-24T12:20:27.694Z,68.87
2022-12-24T12:23:16.548Z,68.98
2022-12-24T12:26:08.943Z,68.85
2022-12-24T12:29:08.565Z,68.58
2022-12-24T12:30:22.286Z,68.61
2022-12-24T12:31:37.228Z,68.63
2022-12-24T12:34:46.705Z,68.51
2022-12-24T12:35:57.493Z,68.71
2022-12-24T12:37:16.574Z,68.71
2022-12-24T12:38:31.248Z,68.56
2022-12-24T12:39:40.436Z,68.75
2022-12-24T12:40:52.871Z,68.95
2022-12-24T12:42:35.077Z,68.84
2022-12-24T12:44:04.617Z,69.01
2022-12-24T12:45:30.106Z,69.26
2022-12-24T12:46:54.458Z,69.03
2022-12-24T12:51:02.289Z,68.73
2022-12-24T12:53:48.455Z,68.95
2022-12-24T12:55:24.435Z,68.87
2022-12-24T12:56:35.589Z,68.79
2022-12-24T12:59:06.184Z,68.91
2022-12-24T13:01:49.870Z,68.72
2022-12-24T13:04:27.953Z,68.49
2022-12-24T13:05:54.039Z,68.58
2022-12-24T13:10:58.566Z,68.08
2022-12-24T13:12:16.668Z,68.06
2022-12-24T13:13:55.541Z,67.92
2022-12-24T13:20:19.143Z,68.59
2022-12-24T13:21:29.893Z,68.39
2022-12-24T13:24:18.631Z,68.56
2022-12-24T13:25:51.283Z,68.65
2022-12-24T13:27:19.499Z,68.54
2022-12-24T13:30:09.618Z,68.61
2022-12-24T13:31:23.338Z,68.81
2022-12-24T13:33:59.548Z,68.91
2022-12-24T13:35:32.052Z,68.97
2022-12-24T13:41:41.124Z,68.63
2022-12-24T13:43:05.940Z,68.63
2022-12-24T13:45:40.196Z,68.54
2022-12-24T13:48:33.130Z,68.85
2022-12-24T13:51:21.738Z,68.97
2022-12-24T13:52:31.530Z,68.96
2022-12-24T13:53:46.676Z,69.01
2022-12-24T13:55:01.224Z,68.94
2022-12-24T13:57:45.152Z,69.01
2022-12-24T14:00:22.640Z,68.99
2022-12-24T14:03:05.869Z,68.96
2022-12-24T14:05:55.446Z,69.00
2022-12-24T14:07:05.828Z,68.90
2022-12-24T14:08:26.887Z,68.83
2022-12-24T14:09:36.221Z,68.87
2022-12-24T14:11:13.453Z,69.11
2022-12-24T14:13:54.204Z,69.46
2022-12-24T14:15:23.400Z,69.55
2022-12-24T14:16:50.770Z,69.29
2022-12-24T14:18:01.093Z,69.64
2022-12-24T14:20:38.988Z,70.06
2022-12-24T14:23:32.237Z,69.95
2022-12-24T14:26:03.487Z,69.33
2022-12-24T14:27:41.146Z,69.13
2022-12-24T14:28:59.999Z,69.07
2022-12-24T14:30:18.676Z,69.30
2022-12-24T14:31:28.641Z,69.44
2022-12-24T14:34:13.719Z,69.50
2022-12-24T14:35:38.053Z,69.62
2022-12-24T14:36:49.233Z,69.44
2022-12-24T14:39:24.560Z,69.69
2022-12-24T14:42:20.347Z,69.66
2022-12-24T14:46:55.617Z,69.43
2022-12-24T14:49:33.521Z,69.65
2022-12-24T14:51:08.249Z,69.74
2022-12-24T14:54:08.771Z,69.73
2022-12-24T14:55:33.225Z,69.58
2022-12-24T14:56:47.570Z,69.61
2022-12-24T14:58:26.229Z,69.75
2022-12-24T14:59:41.517Z,69.56
2022-12-24T15:00:52.324Z,69.67
2022-12-24T15:02:04.161Z,69.59
2022-12-24T15:04:30.850Z,70.08
2022-12-24T15:05:40.071Z,69.95
2022-12-24T15:06:52.487Z,69.89
2022-12-24T15:08:04.083Z,69.53
2022-12-24T15:10:44.100Z,69.57
2022-12-24T15:11:56.610Z,69.40
2022-12-24T15:14:27.390Z,69.56
2022-12-24T15:15:36.999Z,69.49
2022-12-24T15:19:41.301Z,69.77
2022-12-24T15:20:56.146Z,69.78
2022-12-24T15:22:07.923Z,69.78
2022-12-24T15:23:33.833Z,69.61
2022-12-24T15:24:47.835Z,69.54
2022-12-24T15:27:37.042Z,69.48
2022-12-24T15:28:46.447Z,69.52
2022-12-24T15:29:58.021Z,69.63
2022-12-24T15:31:16.118Z,69.58
2022-12-24T15:32:26.135Z,69.63
2022-12-24T15:34:55.127Z,69.52
2022-12-24T15:37:30.963Z,69.67
2022-12-24T15:38:44.757Z,69.52
2022-12-24T15:39:56.683Z,69.53
2022-12-24T15:41:20.592Z,69.46
2022-12-24T15:42:30.534Z,69.31
2022-12-24T15:43:41.487Z,69.30
2022-12-24T15:45:15.144Z,69.21
2022-12-24T15:46:26.823Z,69.19
2022-12-24T15:47:38.872Z,69.19
2022-12-24T15:48:51.175Z,69.58
2022-12-24T15:50:00.896Z,69.56
2022-12-24T15:51:10.505Z,69.65
2022-12-24T15:52:24.558Z,69.81
2022-12-24T15:53:38.704Z,69.94
2022-12-24T15:54:53.837Z,69.95
2022-12-24T15:56:03.918Z,70.07
2022-12-24T15:57:24.724Z,70.15
2022-12-24T15:58:37.583Z,70.24
2022-12-24T15:59:56.495Z,70.14
2022-12-24T16:02:40.205Z,69.54
2022-12-24T16:03:52.757Z,69.13
2022-12-24T16:05:23.358Z,68.99
2022-12-24T16:08:06.957Z,68.49
2022-12-24T16:10:50.983Z,68.46
2022-12-24T16:12:03.377Z,68.61
2022-12-24T16:13:18.049Z,68.63
2022-12-24T16:14:28.217Z,68.51
2022-12-24T16:17:19.231Z,68.68
2022-12-24T16:20:09.532Z,68.71
2022-12-24T16:22:57.818Z,68.65
2022-12-24T16:24:20.984Z,68.82
2022-12-24T16:26:45.463Z,69.05
2022-12-24T16:29:12.433Z,69.22
2022-12-24T16:30:22.783Z,69.31
2022-12-24T16:31:36.290Z,69.56
2022-12-24T16:35:41.063Z,69.74
2022-12-24T16:36:50.208Z,69.87
2022-12-24T16:38:00.553Z,70.07
2022-12-24T16:40:41.225Z,70.15
2022-12-24T16:42:14.868Z,70.13
2022-12-24T16:43:42.477Z,69.92
2022-12-24T16:44:55.324Z,69.48
2022-12-24T16:46:06.759Z,69.10
2022-12-24T16:48:38.347Z,68.72
2022-12-24T16:49:46.896Z,68.77
2022-12-24T16:53:32.594Z,68.42
2022-12-24T16:54:41.580Z,68.51
2022-12-24T16:57:07.296Z,68.79
2022-12-24T16:58:18.694Z,68.80
2022-12-24T16:59:27.286Z,68.90
2022-12-24T17:00:36.827Z,69.39
2022-12-24T17:03:02.284Z,69.88
2022-12-24T17:04:12.025Z,69.88
2022-12-24T17:06:37.734Z,69.64
2022-12-24T17:07:46.656Z,69.31
2022-12-24T17:10:15.125Z,69.43
2022-12-24T17:11:24.362Z,69.35
2022-12-24T17:13:47.713Z,69.71
2022-12-24T17:16:11.328Z,69.86
2022-12-24T17:17:29.951Z,69.84
2022-12-24T17:19:55.709Z,70.03
2022-12-24T17:21:06.228Z,70.02
2022-12-24T17:23:30.807Z,69.95
2022-12-24T17:24:40.299Z,69.79
2022-12-24T17:25:49.957Z,69.54
2022-12-24T17:26:59.511Z,69.27
2022-12-24T17:28:09.256Z,68.97
2022-12-24T17:30:34.024Z,68.91
2022-12-24T17:31:42.701Z,69.15
2022-12-24T17:32:52.257Z,69.23
2022-12-24T17:34:01.141Z,69.20
2022-12-24T17:36:26.669Z,68.57
2022-12-24T17:37:35.310Z,68.49
2022-12-24T17:38:44.564Z,69.12
2022-12-24T17:41:11.822Z,69.94
2022-12-24T17:43:35.753Z,69.51
2022-12-24T17:46:01.393Z,68.83
2022-12-24T17:47:10.901Z,69.67
2022-12-24T17:48:20.238Z,70.55
2022-12-24T17:50:44.488Z,70.67
2022-12-24T17:51:53.311Z,70.77
2022-12-24T17:53:02.615Z,70.45
2022-12-24T17:54:12.547Z,70.27
2022-12-24T17:56:39.495Z,69.24
2022-12-24T17:57:48.927Z,69.16
2022-12-24T17:58:58.487Z,68.83
2022-12-24T18:00:09.280Z,68.98
2022-12-24T18:02:34.764Z,68.11
2022-12-24T18:03:45.586Z,68.41
2022-12-24T18:06:11.833Z,68.77
2022-12-24T18:07:20.568Z,68.76
2022-12-24T18:08:29.735Z,68.83
2022-12-24T18:09:40.956Z,68.70
2022-12-24T18:10:50.851Z,68.74
2022-12-24T18:12:01.024Z,68.60
2022-12-24T18:13:15.735Z,68.63
2022-12-24T18:14:22.777Z,68.88
2022-12-24T18:15:38.559Z,68.46
2022-12-24T18:18:06.060Z,68.88
2022-12-24T18:19:15.894Z,68.82
2022-12-24T18:20:25.546Z,69.23
2022-12-24T18:22:49.486Z,69.49
2022-12-24T18:23:58.512Z,69.38
2022-12-24T18:25:08.618Z,69.48
2022-12-24T18:26:19.343Z,69.46
2022-12-24T18:27:28.624Z,69.45
2022-12-24T18:28:39.309Z,69.43
2022-12-24T18:29:48.926Z,69.39
2022-12-24T18:32:18.535Z,69.87
2022-12-24T18:33:28.993Z,69.95
2022-12-24T18:34:39.315Z,70.09
2022-12-24T18:35:48.850Z,69.85
2022-12-24T18:36:57.525Z,69.80
2022-12-24T18:39:21.151Z,69.78
2022-12-24T18:41:45.055Z,69.54
2022-12-24T18:42:54.115Z,69.49
2022-12-24T18:44:03.282Z,69.50
2022-12-24T18:45:12.148Z,69.56
2022-12-24T18:46:27.644Z,69.55
2022-12-24T18:48:55.143Z,70.22
2022-12-24T18:50:05.304Z,70.30
2022-12-24T18:51:15.081Z,70.06
2022-12-24T18:52:23.690Z,70.16
2022-12-24T18:54:50.015Z,69.77
2022-12-24T18:57:25.830Z,69.01
2022-12-24T18:58:38.372Z,68.73
2022-12-24T18:59:47.033Z,68.74
2022-12-24T19:02:10.967Z,68.99
2022-12-24T19:03:19.791Z,69.13
2022-12-24T19:04:29.080Z,69.22
2022-12-24T19:05:38.008Z,69.26
2022-12-24T19:06:52.716Z,69.38
2022-12-24T19:07:57.397Z,69.28
2022-12-24T19:09:06.377Z,69.09
2022-12-24T19:10:15.335Z,69.40
2022-12-24T19:11:24.844Z,69.43
2022-12-24T19:12:34.884Z,69.05
2022-12-24T19:13:47.641Z,69.11
2022-12-24T19:14:56.407Z,69.84
2022-12-24T19:16:07.273Z,70.20
2022-12-24T19:17:16.065Z,69.96
2022-12-24T19:18:24.842Z,69.99
2022-12-24T19:20:48.609Z,69.81
2022-12-24T19:21:57.107Z,69.98
2022-12-24T19:24:24.593Z,70.17
2022-12-24T19:25:35.136Z,70.35
2022-12-24T19:26:45.119Z,70.13
2022-12-24T19:27:53.762Z,70.09
2022-12-24T19:29:02.408Z,69.96
2022-12-24T19:30:13.244Z,69.72
2022-12-24T19:31:32.675Z,69.56
2022-12-24T19:32:41.385Z,68.91
2022-12-24T19:33:53.061Z,68.87
2022-12-24T19:35:01.640Z,68.89
2022-12-24T19:36:14.426Z,68.85
2022-12-24T19:37:24.193Z,68.90
2022-12-24T19:38:35.158Z,69.01
2022-12-24T19:39:44.431Z,69.20
2022-12-24T19:40:54.292Z,69.31
2022-12-24T19:42:03.339Z,69.45
2022-12-24T19:43:12.387Z,69.49
2022-12-24T19:45:35.882Z,70.03
2022-12-24T19:46:45.964Z,70.33
2022-12-24T19:47:55.135Z,70.50
2022-12-24T19:49:07.432Z,70.54
2022-12-24T19:50:18.234Z,69.74
2022-12-24T19:51:29.509Z,70.21
2022-12-24T19:53:54.976Z,69.58
2022-12-24T19:55:04.556Z,69.59
2022-12-24T19:57:34.600Z,68.00
2022-12-24T19:58:44.261Z,68.34
2022-12-24T19:59:53.027Z,68.59
2022-12-24T20:02:24.414Z,69.34
2022-12-24T20:03:33.234Z,69.49
2022-12-24T20:04:42.041Z,69.50
2022-12-24T20:05:53.474Z,70.18
2022-12-24T20:08:19.279Z,71.18
2022-12-24T20:09:30.753Z,71.03
2022-12-24T20:10:41.524Z,70.43
2022-12-24T20:11:50.521Z,70.49
2022-12-24T20:13:05.870Z,70.13
2022-12-24T20:15:26.674Z,68.37
2022-12-24T20:16:36.023Z,68.06
2022-12-24T20:19:05.511Z,68.93
2022-12-24T20:20:14.915Z,68.67
2022-12-24T20:22:40.257Z,69.02
2022-12-24T20:23:49.854Z,68.88
2022-12-24T20:26:16.028Z,68.71
2022-12-24T20:28:40.738Z,69.19
2022-12-24T20:29:51.534Z,68.65
2022-12-24T20:32:16.103Z,69.82
2022-12-24T20:33:25.797Z,70.03
2022-12-24T20:35:51.420Z,72.02
2022-12-24T20:37:00.623Z,72.50
2022-12-24T20:38:09.933Z,73.15
2022-12-24T20:40:33.778Z,73.76
2022-12-24T20:42:58.674Z,73.06
2022-12-24T20:44:07.347Z,72.36
2022-12-24T20:45:16.253Z,70.97
2022-12-24T20:46:25.641Z,71.02
2022-12-24T20:47:35.272Z,71.10
2022-12-24T20:48:44.685Z,69.97
2022-12-24T20:49:54.373Z,70.02
2022-12-24T20:51:21.248Z,69.97
2022-12-24T20:52:26.583Z,69.55
2022-12-24T20:54:52.878Z,68.96
2022-12-24T20:56:01.911Z,68.98
2022-12-24T20:57:10.865Z,68.59
2022-12-24T20:58:20.623Z,68.92
2022-12-24T20:59:31.264Z,68.68
2022-12-24T21:01:56.847Z,69.10
2022-12-24T21:03:06.211Z,69.29
2022-12-24T21:04:14.817Z,69.42
2022-12-24T21:05:24.611Z,69.42
2022-12-24T21:08:12.529Z,69.49
2022-12-24T21:09:22.080Z,68.63
2022-12-24T21:10:34.290Z,69.27
2022-12-24T21:11:50.317Z,69.68
2022-12-24T21:12:59.661Z,70.25
2022-12-24T21:14:08.561Z,71.35
2022-12-24T21:16:36.350Z,71.80
2022-12-24T21:17:48.228Z,71.55
2022-12-24T21:18:56.859Z,71.64
2022-12-24T21:20:06.872Z,71.24
2022-12-24T21:21:17.167Z,70.79
2022-12-24T21:22:26.843Z,70.58
2022-12-24T21:23:35.602Z,69.78
2022-12-24T21:24:44.914Z,69.98
2022-12-24T21:26:04.269Z,69.52
2022-12-24T21:27:13.815Z,69.37
2022-12-24T21:28:22.475Z,69.52
2022-12-24T21:29:32.045Z,69.35
2022-12-24T21:30:42.347Z,69.47
2022-12-24T21:31:51.106Z,69.49
2022-12-24T21:32:59.620Z,69.37
2022-12-24T21:34:09.281Z,69.67
2022-12-24T21:35:19.092Z,69.61
2022-12-24T21:36:29.904Z,69.71
2022-12-24T21:37:38.769Z,69.64
2022-12-24T21:38:47.603Z,69.16
2022-12-24T21:39:56.120Z,69.66
2022-12-24T21:41:17.884Z,69.70
2022-12-24T21:42:27.197Z,70.16
2022-12-24T21:43:36.786Z,69.62
2022-12-24T21:44:45.408Z,69.92
2022-12-24T21:45:55.014Z,70.41
2022-12-24T21:47:04.303Z,71.12
2022-12-24T21:48:32.728Z,71.79
2022-12-24T21:50:01.242Z,72.20
2022-12-24T21:51:11.499Z,71.89
2022-12-24T21:52:21.238Z,72.06
2022-12-24T21:53:47.949Z,72.63
2022-12-24T21:56:11.890Z,72.46
2022-12-24T21:58:53.849Z,72.37
2022-12-24T22:01:38.888Z,70.35
2022-12-24T22:04:11.544Z,69.56
2022-12-24T22:05:21.405Z,69.81
2022-12-24T22:06:48.336Z,70.45
2022-12-24T22:08:15.420Z,69.81
2022-12-24T22:09:43.163Z,68.45
2022-12-24T22:12:32.303Z,71.49
2022-12-24T22:13:41.836Z,72.26
2022-12-24T22:14:52.624Z,71.65
2022-12-24T22:16:00.965Z,72.07
2022-12-24T22:17:10.222Z,71.58
2022-12-24T22:18:23.208Z,71.08
2022-12-24T22:19:32.991Z,70.74
2022-12-24T22:20:43.642Z,71.13
2022-12-24T22:21:52.326Z,71.05
2022-12-24T22:23:02.615Z,70.73
2022-12-24T22:24:11.590Z,69.23
2022-12-24T22:25:20.340Z,69.77
2022-12-24T22:27:45.614Z,69.82
2022-12-24T22:28:54.533Z,69.10
2022-12-24T22:30:03.932Z,69.68
2022-12-24T22:32:37.612Z,69.62
2022-12-24T22:33:46.981Z,70.42
2022-12-24T22:34:55.512Z,70.05
2022-12-24T22:36:05.225Z,70.68
2022-12-24T22:37:13.767Z,71.08
2022-12-24T22:38:23.461Z,70.44
2022-12-24T22:39:32.297Z,70.45
2022-12-24T22:40:42.105Z,70.84
2022-12-24T22:41:52.932Z,70.77
2022-12-24T22:43:01.672Z,70.81
2022-12-24T22:44:10.427Z,68.81
2022-12-24T22:45:22.420Z,69.04
2022-12-24T22:47:46.446Z,70.55
2022-12-24T22:48:55.202Z,70.67
2022-12-24T22:50:05.572Z,69.62
2022-12-24T22:52:36.429Z,70.69
2022-12-24T22:53:48.462Z,70.57
2022-12-24T22:54:58.672Z,71.51
2022-12-24T22:57:29.265Z,71.43
2022-12-24T22:58:39.661Z,71.78
2022-12-24T22:59:49.034Z,72.18
2022-12-24T23:00:59.032Z,72.32
2022-12-24T23:03:25.701Z,72.61
2022-12-24T23:05:59.059Z,71.72
2022-12-24T23:07:10.694Z,71.10
2022-12-24T23:08:22.238Z,70.25
2022-12-24T23:09:31.078Z,70.24
2022-12-24T23:10:40.723Z,70.83
2022-12-24T23:11:50.307Z,71.42
2022-12-24T23:13:18.387Z,71.45
2022-12-24T23:14:45.806Z,70.29
2022-12-24T23:15:54.341Z,70.29
2022-12-24T23:17:04.153Z,70.15
2022-12-24T23:18:13.262Z,69.46
2022-12-24T23:19:21.913Z,68.89
2022-12-24T23:20:32.320Z,68.31
2022-12-24T23:21:41.524Z,68.86
2022-12-24T23:22:51.077Z,68.84
2022-12-24T23:24:01.288Z,68.76
2022-12-24T23:25:14.209Z,69.04
2022-12-24T23:26:24.492Z,69.33
2022-12-24T23:27:33.121Z,69.32
2022-12-24T23:28:42.733Z,69.01
2022-12-24T23:29:51.244Z,69.12
2022-12-24T23:31:00.837Z,68.68
2022-12-24T23:32:10.074Z,68.85
2022-12-24T23:33:19.279Z,69.53
2022-12-24T23:34:28.024Z,69.61
2022-12-24T23:35:36.775Z,68.82
2022-12-24T23:36:45.804Z,68.96
2022-12-24T23:37:54.422Z,69.47
2022-12-24T23:39:04.146Z,70.64
2022-12-24T23:40:14.646Z,71.35
2022-12-24T23:41:23.284Z,71.72
2022-12-24T23:42:33.072Z,71.66
2022-12-24T23:43:41.627Z,71.15
2022-12-24T23:44:52.028Z,70.98
2022-12-24T23:46:03.927Z,69.92
2022-12-24T23:47:13.610Z,69.80
2022-12-24T23:48:24.893Z,69.58
2022-12-24T23:49:34.125Z,69.60
2022-12-24T23:50:44.830Z,70.26
2022-12-24T23:51:53.719Z,70.09
2022-12-24T23:53:02.362Z,70.21
2022-12-24T23:54:11.311Z,70.76
2022-12-24T23:55:20.081Z,71.25
2022-12-24T23:56:29.901Z,71.59
2022-12-24T23:57:38.688Z,72.34
2022-12-24T23:58:49.678Z,72.43
2022-12-24T23:59:58.654Z,72.28
